Time;durP1;ratioP1;P1;durP2;ratioP2;P2;SDS_P1;SDS_P2;PMS_P1;PMS_P2;Temp;Humidity;BMP_temperature;BMP_pressure;BME280_temperature;BME280_humidity;BME280_pressure;Samples;Min_cycle;Max_cycle;Signal;HPM_P1;HPM_P2
2023/10/08 00:02:25;;;;;;;14.67;6.10;;;;;;;12.47;65.38;95649.66;5023360;28;20321;-69
2023/10/08 00:04:51;;;;;;;14.73;6.47;;;;;;;12.45;65.30;95643.00;5004704;28;20318;-69
2023/10/08 00:07:24;;;;;;;13.57;6.20;;;;;;;12.51;65.54;95639.59;5000992;28;20737;-70
2023/10/08 00:09:52;;;;;;;16.27;6.60;;;;;;;12.57;65.45;95637.00;5036469;28;20691;-68
2023/10/08 00:12:19;;;;;;;13.80;6.10;;;;;;;12.51;65.86;95637.81;5014141;28;20230;-69
2023/10/08 00:14:46;;;;;;;17.77;6.37;;;;;;;12.55;66.18;95631.16;5017475;28;20226;-70
2023/10/08 00:17:12;;;;;;;15.30;6.23;;;;;;;12.69;65.78;95626.75;5014077;28;20263;-70
2023/10/08 00:19:42;;;;;;;13.83;6.30;;;;;;;12.40;66.33;95629.63;5016415;28;20264;-69
2023/10/08 00:22:09;;;;;;;13.90;6.17;;;;;;;12.15;67.50;95639.78;5020182;28;20230;-70
2023/10/08 00:24:35;;;;;;;14.87;6.37;;;;;;;12.26;66.90;95630.56;5013267;28;20257;-69
2023/10/08 00:27:02;;;;;;;13.20;6.30;;;;;;;12.32;66.54;95628.00;5021933;28;20941;-69
2023/10/08 00:29:31;;;;;;;13.23;6.13;;;;;;;12.42;65.63;95619.78;5016674;28;20246;-70
2023/10/08 00:31:57;;;;;;;15.93;6.30;;;;;;;12.21;65.73;95622.44;5023537;28;20237;-70
2023/10/08 00:34:24;;;;;;;11.97;5.90;;;;;;;12.13;66.45;95618.97;4984843;28;20230;-70
2023/10/08 00:36:50;;;;;;;14.87;5.90;;;;;;;12.11;66.39;95626.22;5004550;28;20259;-69
2023/10/08 00:39:33;;;;;;;13.60;6.20;;;;;;;12.03;66.39;95618.50;5016795;28;20417;-69
2023/10/08 00:41:59;;;;;;;14.13;6.03;;;;;;;12.25;66.11;95621.91;5034228;28;20710;-70
2023/10/08 00:44:29;;;;;;;15.30;6.10;;;;;;;12.37;65.03;95624.78;4999382;28;20225;-70
2023/10/08 00:46:55;;;;;;;12.40;5.90;;;;;;;12.35;65.43;95611.84;5020116;28;20236;-70
2023/10/08 00:51:59;;;;;;;11.17;5.90;;;;;;;11.97;66.60;95603.50;5018859;28;20233;-70
2023/10/08 00:54:28;;;;;;;15.80;5.73;;;;;;;11.94;66.81;95603.09;5028791;28;20237;-69
2023/10/08 00:56:57;;;;;;;12.93;5.67;;;;;;;12.09;66.33;95609.88;5014740;28;20229;-69
2023/10/08 00:59:23;;;;;;;14.77;5.90;;;;;;;12.16;65.74;95602.84;5021607;28;20248;-69
2023/10/08 01:01:58;;;;;;;13.13;5.80;;;;;;;11.82;66.51;95594.13;5026224;28;20302;-70
2023/10/08 01:04:27;;;;;;;11.50;5.40;;;;;;;11.95;65.88;95607.34;5002390;28;20244;-69
2023/10/08 01:06:56;;;;;;;13.30;6.20;;;;;;;11.79;66.63;95594.50;5017252;28;20321;-68
2023/10/08 01:09:31;;;;;;;14.90;5.53;;;;;;;11.93;66.55;95598.84;5032565;28;20738;-70
2023/10/08 01:12:20;;;;;;;12.70;5.67;;;;;;;11.88;65.96;95599.41;5002794;28;20758;-69
2023/10/08 01:14:47;;;;;;;11.67;5.07;;;;;;;11.84;65.84;95595.56;5003456;28;20230;-68
2023/10/08 01:17:16;;;;;;;11.03;5.20;;;;;;;11.99;64.23;95596.25;5031147;28;20768;-70
2023/10/08 01:19:56;;;;;;;11.47;5.10;;;;;;;11.89;65.35;95592.38;5019609;28;20301;-68
2023/10/08 01:22:22;;;;;;;9.70;4.67;;;;;;;11.85;64.48;95598.97;5015619;28;20230;-69
2023/10/08 01:24:51;;;;;;;9.17;4.80;;;;;;;12.00;63.84;95600.53;5006582;28;20624;-69
2023/10/08 01:27:24;;;;;;;10.33;4.70;;;;;;;12.06;63.94;95601.56;5006581;28;20299;-70
2023/10/08 01:29:50;;;;;;;12.57;4.50;;;;;;;12.13;63.39;95603.22;5025790;28;20321;-69
2023/10/08 01:32:20;;;;;;;11.43;4.47;;;;;;;12.03;62.99;95599.31;4999404;28;20977;-70
2023/10/08 01:34:46;;;;;;;8.83;4.57;;;;;;;11.91;63.23;95603.47;5003176;28;20226;-69
2023/10/08 01:37:17;;;;;;;9.97;4.70;;;;;;;11.79;63.48;95594.50;5002936;28;20256;-69
2023/10/08 01:39:46;;;;;;;11.20;4.40;;;;;;;11.89;63.26;95592.38;5018924;28;20257;-69
2023/10/08 01:42:17;;;;;;;8.97;4.60;;;;;;;11.93;63.29;95601.47;5012806;28;20716;-70
2023/10/08 01:44:50;;;;;;;12.63;4.30;;;;;;;11.79;63.83;95602.38;5037180;28;20240;-69
2023/10/08 01:47:16;;;;;;;10.83;4.80;;;;;;;11.70;64.37;95606.94;5005966;28;20230;-71
2023/10/08 01:49:46;;;;;;;11.03;4.60;;;;;;;11.86;63.68;95606.69;5007808;28;20245;-69
2023/10/08 01:52:21;;;;;;;9.70;4.63;;;;;;;11.52;63.80;95603.94;5002604;28;20291;-70
2023/10/08 01:54:48;;;;;;;9.00;4.47;;;;;;;11.52;64.46;95602.13;5018688;28;20228;-69
2023/10/08 01:57:14;;;;;;;9.77;4.77;;;;;;;11.48;65.16;95603.50;5006766;28;20233;-69
2023/10/08 01:59:40;;;;;;;11.63;4.70;;;;;;;11.51;65.29;95599.69;4999701;28;20244;-69
2023/10/08 02:02:06;;;;;;;12.37;4.73;;;;;;;11.72;65.23;95602.34;5000520;28;20221;-68
2023/10/08 02:04:37;;;;;;;9.67;4.83;;;;;;;11.56;65.48;95602.53;5012290;28;20225;-68
2023/10/08 02:07:03;;;;;;;9.10;4.83;;;;;;;11.57;65.89;95609.41;5009279;28;20229;-69
2023/10/08 02:09:33;;;;;;;9.13;4.30;;;;;;;11.63;65.65;95600.78;5012553;28;20316;-67
2023/10/08 02:11:58;;;;;;;10.33;4.77;;;;;;;11.58;66.59;95597.13;5029170;28;20320;-70
2023/10/08 02:14:24;;;;;;;10.80;4.90;;;;;;;11.49;67.23;95599.06;5016304;28;20244;-69
2023/10/08 02:16:52;;;;;;;13.57;5.30;;;;;;;11.38;68.44;95597.75;5030916;28;20221;-69
2023/10/08 02:19:18;;;;;;;10.07;4.73;;;;;;;11.68;67.27;95593.19;5018628;28;20218;-69
2023/10/08 02:21:46;;;;;;;9.20;4.93;;;;;;;11.41;67.80;95594.78;5019090;28;20253;-70
2023/10/08 02:24:12;;;;;;;11.20;5.00;;;;;;;11.52;67.96;95588.19;5017128;28;20707;-69
2023/10/08 02:26:38;;;;;;;12.50;5.17;;;;;;;11.47;68.16;95590.56;5019289;28;20233;-69
2023/10/08 02:29:10;;;;;;;12.53;5.10;;;;;;;11.46;68.60;95589.75;5024828;28;20637;-70
2023/10/08 02:31:39;;;;;;;12.00;5.27;;;;;;;11.68;67.56;95592.41;5030588;28;20252;-69
2023/10/08 02:34:07;;;;;;;11.77;5.20;;;;;;;11.65;67.97;95590.94;5037542;28;20691;-69
2023/10/08 02:36:36;;;;;;;11.50;5.00;;;;;;;11.32;68.71;95590.63;5001533;28;20237;-69
2023/10/08 02:39:06;;;;;;;12.40;5.20;;;;;;;11.33;69.23;95583.59;4997831;28;20234;-69
2023/10/08 02:41:32;;;;;;;10.70;5.20;;;;;;;11.30;69.40;95581.34;4998208;28;20652;-69
2023/10/08 02:43:59;;;;;;;12.87;5.33;;;;;;;11.58;68.54;95573.53;5030649;28;20325;-70
2023/10/08 02:46:26;;;;;;;11.47;4.80;;;;;;;11.31;69.54;95575.94;5016116;28;20747;-70
2023/10/08 02:48:52;;;;;;;13.93;4.87;;;;;;;11.23;69.45;95589.13;5030050;28;20313;-70
2023/10/08 02:51:20;;;;;;;10.90;5.13;;;;;;;11.04;70.31;95581.06;4993480;28;20242;-70
2023/10/08 02:53:46;;;;;;;11.67;5.03;;;;;;;11.02;70.44;95585.69;5028989;28;20345;-69
2023/10/08 02:56:13;;;;;;;11.43;5.10;;;;;;;11.11;70.53;95585.38;5023722;28;20309;-70
2023/10/08 02:58:43;;;;;;;10.93;4.77;;;;;;;11.14;70.50;95584.22;5038488;28;20237;-69
2023/10/08 03:01:12;;;;;;;13.30;5.37;;;;;;;11.03;70.98;95585.53;5020162;28;20225;-69
2023/10/08 03:03:40;;;;;;;13.20;5.10;;;;;;;11.17;70.41;95589.09;5035231;28;20229;-69
2023/10/08 03:06:11;;;;;;;14.00;4.97;;;;;;;10.70;71.73;95592.19;5040542;28;20226;-69
2023/10/08 03:08:37;;;;;;;11.03;4.87;;;;;;;11.02;70.62;95590.94;5031826;28;20677;-70
2023/10/08 03:11:03;;;;;;;12.87;5.10;;;;;;;10.69;71.82;95586.16;5011282;28;20817;-69
2023/10/08 03:13:29;;;;;;;11.17;5.13;;;;;;;11.08;71.13;95579.72;5038900;28;20268;-69
2023/10/08 03:18:34;;;;;;;11.87;5.27;;;;;;;10.96;71.96;95581.22;5022959;28;20278;-76
2023/10/08 03:21:03;;;;;;;11.27;5.00;;;;;;;10.95;72.27;95585.63;5006311;28;20233;-75
2023/10/08 03:23:36;;;;;;;11.73;5.40;;;;;;;10.77;72.95;95580.78;5033988;28;20233;-76
2023/10/08 03:26:10;;;;;;;13.40;5.33;;;;;;;10.72;73.39;95580.53;5009714;28;20230;-74
2023/10/08 03:28:37;;;;;;;12.40;5.10;;;;;;;11.09;72.25;95576.91;5021134;28;20233;-70
2023/10/08 03:31:04;;;;;;;13.23;5.07;;;;;;;10.96;73.02;95576.78;5019296;28;20744;-70
2023/10/08 03:33:37;;;;;;;12.30;5.03;;;;;;;10.77;73.13;95572.16;5019035;28;20316;-69
2023/10/08 03:36:44;;;;;;;11.30;5.00;;;;;;;10.87;72.33;95580.50;5028216;28;20237;-69
2023/10/08 03:38:57;;;;;;;11.90;5.10;;;;;;;10.76;73.16;95573.13;5026319;28;20325;-76
2023/10/08 03:41:29;;;;;;;11.30;5.10;;;;;;;10.70;73.74;95566.00;5016934;28;20229;-76
2023/10/08 03:44:12;;;;;;;10.43;4.90;;;;;;;10.91;73.07;95558.19;5022181;28;20230;-75
2023/10/08 03:46:42;;;;;;;10.20;5.10;;;;;;;10.76;73.91;95554.81;5025426;28;20237;-75
2023/10/08 03:49:24;;;;;;;12.40;5.07;;;;;;;10.69;73.55;95553.91;4989374;28;20305;-76
2023/10/08 03:51:53;;;;;;;11.73;5.00;;;;;;;10.64;74.25;95562.31;5029008;28;20712;-76
2023/10/08 03:54:33;;;;;;;10.33;4.70;;;;;;;10.72;73.77;95556.19;5026142;28;20218;-76
2023/10/08 03:57:00;;;;;;;14.33;5.00;;;;;;;10.73;74.11;95558.59;5016054;28;20226;-76
2023/10/08 03:59:33;;;;;;;12.67;5.20;;;;;;;10.52;74.56;95555.13;5017848;28;20325;-77
2023/10/08 04:02:13;;;;;;;13.80;5.30;;;;;;;10.46;74.88;95553.25;5020603;28;20255;-75
2023/10/08 04:04:51;;;;;;;13.20;5.30;;;;;;;10.76;74.25;95550.38;5020659;28;20696;-75
2023/10/08 04:12:44;;;;;;;11.70;5.23;;;;;;;10.54;74.85;95556.56;5017829;28;20777;-77
2023/10/08 04:15:12;;;;;;;16.10;5.63;;;;;;;10.28;75.71;95558.84;5020811;28;20232;-76
2023/10/08 04:17:44;;;;;;;13.77;5.57;;;;;;;10.33;75.53;95559.13;5004733;28;20291;-75
2023/10/08 04:23:00;;;;;;;13.53;5.50;;;;;;;10.67;74.54;95551.50;5018035;28;20232;-75
2023/10/08 04:25:29;;;;;;;11.50;5.73;;;;;;;10.43;74.99;95548.38;5032686;28;20481;-76
2023/10/08 04:27:58;;;;;;;14.03;5.40;;;;;;;10.33;75.70;95545.22;5003402;28;20707;-77
2023/10/08 04:30:32;;;;;;;15.13;5.60;;;;;;;10.09;76.69;95546.31;5030809;28;20230;-76
2023/10/08 04:33:06;;;;;;;13.83;5.50;;;;;;;10.52;75.15;95548.09;5009745;28;20327;-75
2023/10/08 04:36:18;;;;;;;13.67;6.07;;;;;;;10.41;75.45;95547.75;5032176;28;20270;-75
2023/10/08 04:38:28;;;;;;;12.43;5.60;;;;;;;10.21;75.83;95542.28;5020068;28;20240;-75
2023/10/08 04:40:54;;;;;;;16.53;6.10;;;;;;;10.51;75.23;95551.69;5017357;28;20613;-76
2023/10/08 04:43:30;;;;;;;17.30;6.47;;;;;;;10.42;75.32;95552.78;5005790;28;20228;-77
2023/10/08 04:45:59;;;;;;;14.60;6.60;;;;;;;10.04;76.64;95561.72;5007018;28;20871;-75
2023/10/08 04:48:26;;;;;;;15.40;6.87;;;;;;;10.19;76.53;95559.13;5020171;28;20233;-75
2023/10/08 04:51:02;;;;;;;17.60;6.87;;;;;;;10.44;75.69;95568.31;5004295;28;20246;-75
2023/10/08 04:53:37;;;;;;;18.27;7.10;;;;;;;10.68;75.14;95560.13;5023410;28;20601;-70
2023/10/08 04:56:13;;;;;;;16.80;7.53;;;;;;;10.62;75.39;95551.22;5025776;28;20276;-68
2023/10/08 04:58:46;;;;;;;16.97;7.60;;;;;;;10.75;75.11;95550.56;5031450;28;20217;-70
2023/10/08 05:01:18;;;;;;;19.50;6.93;;;;;;;10.40;76.40;95549.56;5032881;28;20287;-69
2023/10/08 05:04:45;;;;;;;16.90;7.23;;;;;;;10.50;76.16;95567.59;5030265;28;20225;-69
2023/10/08 05:09:12;;;;;;;13.27;6.70;;;;;;;10.72;75.30;95562.19;5041541;28;20309;-76
2023/10/08 05:14:28;;;;;;;18.90;7.47;;;;;;;10.92;75.01;95564.22;5017773;28;20352;-76
2023/10/08 05:17:09;;;;;;;17.73;7.47;;;;;;;10.73;75.61;95561.22;5017253;28;20221;-76
2023/10/08 05:30:28;;;;;;;17.97;7.37;;;;;;;10.95;75.43;95571.72;5033570;28;20591;-70
2023/10/08 05:49:01;;;;;;;18.50;7.07;;;;;;;11.74;72.42;95579.34;5031248;28;20221;-68
2023/10/08 06:13:04;;;;;;;15.23;7.60;;;;;;;12.41;65.97;95582.19;5026298;28;20272;-69
2023/10/08 06:18:25;;;;;;;13.73;6.77;;;;;;;12.46;65.90;95581.63;5014899;28;20225;-69
2023/10/08 06:21:07;;;;;;;14.57;6.80;;;;;;;12.53;66.18;95583.28;5016728;28;20607;-69
2023/10/08 06:23:35;;;;;;;16.13;6.63;;;;;;;12.68;65.42;95576.03;5020184;28;20226;-70
2023/10/08 06:26:05;;;;;;;13.60;6.70;;;;;;;12.73;65.11;95578.91;5002390;28;20225;-69
2023/10/08 06:28:34;;;;;;;15.63;6.90;;;;;;;12.74;65.61;95583.16;5000366;28;22055;-70
2023/10/08 06:31:01;;;;;;;17.30;7.47;;;;;;;12.86;65.78;95580.75;5007195;28;20244;-70
2023/10/08 06:33:35;;;;;;;13.73;7.63;;;;;;;12.92;65.69;95579.19;5001854;28;20288;-70
2023/10/08 06:36:24;;;;;;;17.13;8.33;;;;;;;13.02;64.51;95576.97;5028349;28;20237;-70
2023/10/08 06:38:49;;;;;;;19.27;8.13;;;;;;;13.17;64.27;95575.03;5029422;28;20302;-68
2023/10/08 06:41:17;;;;;;;18.93;8.50;;;;;;;13.16;63.58;95574.19;4998502;28;20789;-69
2023/10/08 06:44:06;;;;;;;22.77;8.60;;;;;;;13.29;63.82;95573.44;5039297;28;20372;-69
2023/10/08 06:46:32;;;;;;;19.43;8.40;;;;;;;13.24;63.35;95574.03;5021686;28;20237;-69
2023/10/08 06:49:02;;;;;;;20.83;8.23;;;;;;;13.26;63.39;95574.63;5013570;28;20230;-70
2023/10/08 06:51:30;;;;;;;16.27;7.93;;;;;;;13.47;62.83;95563.13;5006870;28;20237;-69
2023/10/08 06:53:56;;;;;;;17.80;7.63;;;;;;;13.49;62.63;95561.13;4995003;28;20802;-69
2023/10/08 06:56:23;;;;;;;13.33;7.20;;;;;;;13.62;62.35;95570.81;5014082;28;20332;-69
2023/10/08 06:58:52;;;;;;;18.30;6.90;;;;;;;13.76;63.04;95568.00;5015205;28;20225;-69
2023/10/08 07:01:21;;;;;;;13.80;6.67;;;;;;;13.80;62.18;95568.41;5023668;28;20787;-70
2023/10/08 07:03:50;;;;;;;15.20;6.73;;;;;;;13.90;63.19;95572.22;4993541;28;20222;-69
2023/10/08 07:06:31;;;;;;;15.23;7.00;;;;;;;13.94;62.00;95564.75;5002295;28;20238;-70
2023/10/08 07:08:59;;;;;;;14.63;6.80;;;;;;;14.14;61.15;95565.50;5020554;28;20312;-70
2023/10/08 07:11:26;;;;;;;15.77;6.70;;;;;;;14.13;62.16;95561.28;5012539;28;20311;-70
2023/10/08 07:13:52;;;;;;;14.53;6.03;;;;;;;14.12;60.58;95562.28;4991810;28;20225;-69
2023/10/08 07:16:17;;;;;;;13.30;6.30;;;;;;;14.22;60.98;95567.94;5017451;28;20237;-70
2023/10/08 07:18:52;;;;;;;14.50;6.20;;;;;;;14.45;60.20;95554.34;5022746;28;20229;-69
2023/10/08 07:21:17;;;;;;;15.03;6.30;;;;;;;14.45;60.04;95560.41;5020945;28;20632;-70
2023/10/08 07:24:04;;;;;;;15.27;6.43;;;;;;;14.51;59.43;95554.31;5012266;28;20710;-70
2023/10/08 07:26:36;;;;;;;15.13;6.40;;;;;;;14.64;59.29;95553.47;5015632;28;20344;-69
2023/10/08 07:29:07;;;;;;;17.40;6.70;;;;;;;14.72;60.25;95556.66;5014133;28;20268;-69
2023/10/08 07:31:34;;;;;;;16.73;7.43;;;;;;;14.82;58.75;95553.59;5025842;28;20234;-69
2023/10/08 07:34:15;;;;;;;21.40;8.37;;;;;;;14.85;59.32;95550.53;5000475;28;20232;-69
2023/10/08 07:36:44;;;;;;;22.73;8.83;;;;;;;14.99;58.86;95548.66;5036583;28;20258;-69
2023/10/08 07:39:24;;;;;;;22.20;8.77;;;;;;;15.10;58.46;95538.22;5013215;28;20304;-69
2023/10/08 07:41:50;;;;;;;23.57;8.70;;;;;;;15.19;58.24;95531.66;5023188;28;20604;-69
2023/10/08 07:44:16;;;;;;;20.93;8.00;;;;;;;15.24;58.21;95523.13;5013948;28;20288;-69
2023/10/08 07:46:41;;;;;;;18.20;8.07;;;;;;;15.24;57.96;95517.84;5031286;28;20242;-69
2023/10/08 07:49:07;;;;;;;21.67;7.90;;;;;;;15.24;58.53;95515.22;5029068;28;20221;-69
2023/10/08 07:51:33;;;;;;;20.50;7.93;;;;;;;15.27;59.02;95520.06;5031360;28;20671;-69
2023/10/08 07:53:59;;;;;;;21.57;7.80;;;;;;;15.37;59.64;95509.84;4995471;28;20233;-70
2023/10/08 07:56:26;;;;;;;18.87;7.60;;;;;;;15.50;58.50;95513.22;5022695;28;20230;-68
2023/10/08 07:58:52;;;;;;;22.13;7.83;;;;;;;15.62;58.65;95507.25;5041026;28;20234;-70
2023/10/08 08:01:20;;;;;;;19.13;7.53;;;;;;;15.85;57.36;95516.19;5018151;28;20233;-68
2023/10/08 08:03:48;;;;;;;17.47;7.13;;;;;;;16.02;57.16;95511.97;4999056;28;20238;-69
2023/10/08 08:06:15;;;;;;;17.03;7.20;;;;;;;16.09;57.18;95507.44;5031464;28;20317;-70
2023/10/08 08:08:41;;;;;;;18.60;7.03;;;;;;;16.08;57.69;95499.69;5011604;28;20955;-69
2023/10/08 08:11:11;;;;;;;29.10;7.07;;;;;;;16.29;56.91;95501.13;5030537;28;20294;-69
2023/10/08 08:13:37;;;;;;;17.23;7.10;;;;;;;16.46;56.24;95497.66;5022359;28;20222;-75
2023/10/08 08:16:19;;;;;;;17.63;7.07;;;;;;;16.57;56.13;95498.78;5017923;28;20746;-75
2023/10/08 08:18:49;;;;;;;21.97;7.57;;;;;;;16.64;55.06;95495.03;5022368;28;20315;-75
2023/10/08 08:21:15;;;;;;;17.80;6.87;;;;;;;16.73;55.24;95493.69;5002752;28;20230;-76
2023/10/08 08:23:48;;;;;;;18.97;6.87;;;;;;;16.68;55.47;95482.97;5015363;28;20230;-76
2023/10/08 08:26:26;;;;;;;21.90;6.83;;;;;;;16.75;55.22;95483.69;5033985;28;20288;-75
2023/10/08 08:28:56;;;;;;;16.73;6.60;;;;;;;16.84;54.88;95474.41;5027304;28;20233;-75
2023/10/08 08:31:23;;;;;;;20.20;6.80;;;;;;;17.04;54.26;95476.78;5022931;28;20632;-76
2023/10/08 08:33:56;;;;;;;17.60;5.97;;;;;;;16.99;54.30;95467.91;4989560;28;20685;-77
2023/10/08 08:36:26;;;;;;;11.77;5.40;;;;;;;17.18;53.83;95464.97;5030871;28;20246;-75
2023/10/08 08:38:52;;;;;;;15.33;5.70;;;;;;;17.63;51.74;95464.47;5010352;28;20230;-77
2023/10/08 08:41:19;;;;;;;12.47;4.60;;;;;;;18.11;48.78;95471.16;5020543;28;20233;-77
2023/10/08 08:43:48;;;;;;;10.97;4.63;;;;;;;18.28;47.73;95465.94;5013511;28;20298;-76
2023/10/08 08:46:13;;;;;;;8.37;3.90;;;;;;;18.54;43.75;95468.09;5002388;28;20226;-75
2023/10/08 08:48:45;;;;;;;10.60;4.13;;;;;;;18.88;43.28;95462.91;5015504;28;20221;-77
2023/10/08 08:51:11;;;;;;;8.07;3.87;;;;;;;18.97;42.75;95464.94;5034996;28;20316;-75
2023/10/08 08:53:37;;;;;;;7.53;4.00;;;;;;;19.17;41.63;95453.88;5010485;28;20265;-76
2023/10/08 08:56:05;;;;;;;10.77;3.90;;;;;;;19.19;41.47;95462.41;5013184;28;20730;-75
2023/10/08 08:58:34;;;;;;;84.00;6.03;;;;;;;19.27;41.90;95462.03;5004512;28;20230;-76
2023/10/08 09:01:00;;;;;;;11.43;3.93;;;;;;;19.53;40.71;95457.97;5020505;28;20221;-76
2023/10/08 09:03:31;;;;;;;12.40;4.20;;;;;;;19.60;40.85;95450.63;5017639;28;20218;-75
2023/10/08 09:06:00;;;;;;;12.90;4.00;;;;;;;19.57;41.45;95443.97;5032943;28;20222;-75
2023/10/08 09:08:31;;;;;;;20.93;4.80;;;;;;;19.81;40.62;95450.69;5031998;28;20287;-77
2023/10/08 09:11:04;;;;;;;10.83;4.20;;;;;;;20.16;39.57;95445.88;5024875;28;20222;-77
2023/10/08 09:13:31;;;;;;;9.30;4.03;;;;;;;20.24;39.13;95446.53;5017235;28;20329;-75
2023/10/08 09:16:03;;;;;;;12.60;4.37;;;;;;;20.36;37.85;95440.03;5031206;28;20222;-75
2023/10/08 09:18:29;;;;;;;8.53;4.20;;;;;;;20.41;37.91;95434.78;5017704;28;20230;-74
2023/10/08 09:20:55;;;;;;;8.87;4.10;;;;;;;20.53;38.28;95437.31;5016680;28;21129;-74
2023/10/08 09:23:24;;;;;;;8.20;3.90;;;;;;;20.61;37.48;95434.25;5018088;28;21088;-75
2023/10/08 09:25:49;;;;;;;10.17;4.07;;;;;;;20.55;38.63;95437.88;5022687;28;20230;-75
2023/10/08 09:28:16;;;;;;;9.80;4.10;;;;;;;20.61;38.95;95434.25;5024886;28;20222;-77
2023/10/08 09:30:44;;;;;;;10.60;4.30;;;;;;;20.78;37.60;95442.91;5020106;28;20230;-69
2023/10/08 09:33:15;;;;;;;9.23;3.93;;;;;;;20.81;37.52;95440.56;5015143;28;20609;-68
2023/10/08 09:35:43;;;;;;;10.83;4.33;;;;;;;20.87;37.53;95435.31;4998247;28;20249;-69
2023/10/08 09:38:09;;;;;;;10.90;4.37;;;;;;;20.94;37.68;95420.75;5034872;28;20609;-68
2023/10/08 09:40:38;;;;;;;10.97;4.10;;;;;;;21.15;37.86;95425.25;5031181;28;20245;-69
2023/10/08 09:43:03;;;;;;;8.43;4.13;;;;;;;21.14;36.95;95428.13;5016618;28;20229;-69
2023/10/08 09:45:29;;;;;;;8.50;3.93;;;;;;;21.26;36.65;95426.91;4996301;28;20810;-70
2023/10/08 09:47:55;;;;;;;9.87;3.83;;;;;;;21.33;36.17;95405.41;5017240;28;20233;-69
2023/10/08 09:50:26;;;;;;;10.60;3.73;;;;;;;21.59;35.61;95414.41;5012472;28;20232;-69
2023/10/08 09:53:16;;;;;;;10.60;3.80;;;;;;;21.65;35.43;95419.50;5020823;28;20984;-69
2023/10/08 09:55:49;;;;;;;11.67;4.00;;;;;;;21.60;35.54;95398.16;5026772;28;20341;-71
2023/10/08 09:58:16;;;;;;;15.17;4.17;;;;;;;21.40;36.15;95422.78;5007198;28;20236;-70
2023/10/08 10:00:44;;;;;;;8.90;4.03;;;;;;;21.27;36.37;95417.88;5029893;28;20312;-69
2023/10/08 10:03:12;;;;;;;10.97;4.40;;;;;;;21.15;36.88;95408.44;5024292;28;20260;-69
2023/10/08 10:05:37;;;;;;;11.47;4.00;;;;;;;21.15;36.57;95397.81;4998399;28;20317;-70
2023/10/08 10:08:09;;;;;;;9.20;4.20;;;;;;;21.12;36.66;95399.09;5031403;28;20368;-69
2023/10/08 10:10:38;;;;;;;8.87;4.07;;;;;;;21.06;37.28;95397.47;5034894;28;20234;-70
2023/10/08 10:13:09;;;;;;;9.30;4.37;;;;;;;21.05;37.43;95392.38;5014140;28;20225;-70
2023/10/08 10:15:38;;;;;;;11.97;4.30;;;;;;;21.06;37.53;95392.16;5031142;28;20233;-70
2023/10/08 10:18:14;;;;;;;12.40;4.67;;;;;;;21.12;37.00;95380.47;4999552;28;20714;-70
2023/10/08 10:20:41;;;;;;;10.37;3.87;;;;;;;21.60;35.52;95373.38;5017818;28;20291;-69
2023/10/08 10:23:45;;;;;;;9.10;3.73;;;;;;;21.90;35.03;95381.59;4996012;28;20750;-68
2023/10/08 10:26:30;;;;;;;8.57;3.57;;;;;;;22.18;34.17;95385.72;5040316;28;20312;-70
2023/10/08 10:29:14;;;;;;;14.37;3.80;;;;;;;22.29;34.34;95380.16;5040139;28;20233;-69
2023/10/08 10:31:46;;;;;;;11.47;3.70;;;;;;;22.37;35.00;95377.00;5041227;28;20267;-71
2023/10/08 10:34:18;;;;;;;11.33;3.63;;;;;;;22.41;35.41;95367.41;5017619;28;20218;-70
2023/10/08 10:36:48;;;;;;;9.87;3.43;;;;;;;22.53;35.44;95384.00;5001059;28;20231;-69
2023/10/08 10:39:18;;;;;;;11.20;3.67;;;;;;;22.56;35.64;95367.47;5006636;28;20610;-71
2023/10/08 10:41:48;;;;;;;13.00;3.60;;;;;;;22.64;35.31;95374.19;4991431;28;20221;-71
2023/10/08 10:44:14;;;;;;;11.83;3.97;;;;;;;22.69;35.77;95361.63;5029026;28;20237;-69
2023/10/08 10:46:50;;;;;;;8.50;3.70;;;;;;;22.68;35.51;95356.56;5002074;28;20261;-70
2023/10/08 10:49:21;;;;;;;7.23;3.90;;;;;;;22.85;35.94;95359.81;5031793;28;20226;-70
2023/10/08 10:51:59;;;;;;;11.03;4.00;;;;;;;23.09;35.15;95352.09;5015526;28;20229;-70
2023/10/08 10:54:25;;;;;;;9.40;3.90;;;;;;;23.24;35.00;95352.88;5034457;28;20229;-70
2023/10/08 10:57:03;;;;;;;8.10;3.80;;;;;;;23.07;35.01;95340.88;5015790;28;20229;-70
2023/10/08 10:59:38;;;;;;;7.23;3.90;;;;;;;23.19;35.04;95350.19;5032116;28;20286;-70
2023/10/08 11:02:07;;;;;;;9.13;3.80;;;;;;;23.19;35.24;95342.19;5017138;28;20606;-71
2023/10/08 11:04:45;;;;;;;7.90;3.70;;;;;;;23.19;34.92;95328.84;5013826;28;20230;-69
2023/10/08 11:07:12;;;;;;;6.93;3.50;;;;;;;23.33;34.72;95342.47;5015726;28;20240;-70
2023/10/08 11:09:38;;;;;;;11.00;3.80;;;;;;;23.30;34.81;95338.47;5016587;28;20234;-70
2023/10/08 11:12:12;;;;;;;13.23;4.00;;;;;;;23.24;34.46;95331.50;5009952;28;20230;-70
2023/10/08 11:14:46;;;;;;;7.40;3.80;;;;;;;23.18;33.72;95326.44;5032732;28;20235;-69
2023/10/08 11:17:15;;;;;;;11.63;3.60;;;;;;;23.29;34.27;95320.81;4999960;28;20225;-71
2023/10/08 11:19:42;;;;;;;12.27;3.57;;;;;;;23.45;33.77;95327.78;5019687;28;20730;-71
2023/10/08 11:22:15;;;;;;;10.43;3.83;;;;;;;23.56;33.92;95328.56;5017680;28;20324;-76
2023/10/08 11:24:42;;;;;;;11.30;3.80;;;;;;;23.39;34.71;95317.38;4999839;28;20222;-78
2023/10/08 11:27:17;;;;;;;10.47;3.80;;;;;;;23.23;34.62;95313.91;5023023;28;20229;-77
2023/10/08 11:29:47;;;;;;;8.07;3.70;;;;;;;23.54;34.25;95324.56;5002180;28;20229;-74
2023/10/08 11:32:15;;;;;;;8.63;3.77;;;;;;;23.70;33.95;95310.88;5014553;28;20230;-75
2023/10/08 11:34:41;;;;;;;8.83;3.50;;;;;;;23.51;34.12;95312.53;5018609;28;20221;-76
2023/10/08 11:37:25;;;;;;;12.10;3.73;;;;;;;23.23;34.80;95307.75;5038192;28;20233;-77
2023/10/08 11:39:52;;;;;;;12.30;4.30;;;;;;;23.02;35.73;95306.97;5021898;28;20897;-76
2023/10/08 11:47:57;;;;;;;12.73;3.80;;;;;;;22.84;36.41;95310.16;5034889;28;20912;-74
2023/10/08 11:50:30;;;;;;;11.87;3.97;;;;;;;22.81;36.51;95316.00;5035013;28;20290;-75
2023/10/08 11:53:08;;;;;;;11.10;3.87;;;;;;;22.77;36.62;95317.63;5006092;28;20234;-75
2023/10/08 11:55:35;;;;;;;11.73;3.83;;;;;;;22.77;36.55;95312.28;5021800;28;20241;-76
2023/10/08 11:58:10;;;;;;;8.87;3.77;;;;;;;22.71;36.94;95308.00;5017953;28;20927;-77
2023/10/08 12:00:45;;;;;;;9.27;3.80;;;;;;;22.66;36.96;95297.31;5022519;28;20233;-77
2023/10/08 12:03:21;;;;;;;13.53;4.03;;;;;;;22.61;37.13;95298.13;5028326;28;20223;-77
2023/10/08 12:05:48;;;;;;;14.50;3.90;;;;;;;22.70;37.23;95299.19;5033579;28;20332;-75
2023/10/08 12:08:17;;;;;;;12.95;4.20;;;;;;;23.02;36.99;95288.28;5005696;28;20699;-75
2023/10/08 12:10:43;;;;;;;11.63;4.00;;;;;;;23.31;36.60;95294.63;5034201;28;20225;-76
2023/10/08 12:13:10;;;;;;;11.90;3.70;;;;;;;23.13;36.77;95297.06;5008188;28;20308;-78
2023/10/08 12:15:41;;;;;;;14.27;3.73;;;;;;;23.20;37.03;95281.56;5021243;28;20265;-77
2023/10/08 12:18:15;;;;;;;14.73;3.97;;;;;;;23.33;36.71;95294.38;5029249;28;20230;-77
2023/10/08 12:20:45;;;;;;;18.33;3.93;;;;;;;23.55;36.53;95289.53;5005544;28;20237;-76
2023/10/08 12:23:11;;;;;;;14.60;4.03;;;;;;;23.58;36.42;95286.31;5011354;28;20258;-75
2023/10/08 12:25:37;;;;;;;16.13;4.00;;;;;;;23.36;36.40;95307.22;5014467;28;20276;-77
2023/10/08 12:28:04;;;;;;;19.63;3.90;;;;;;;23.23;36.82;95300.53;5025200;28;20239;-80
2023/10/08 12:30:32;;;;;;;11.20;3.63;;;;;;;23.09;37.03;95291.47;5016364;28;20234;-76
2023/10/08 12:32:59;;;;;;;13.60;3.47;;;;;;;23.02;37.42;95296.28;5008314;28;20611;-76
2023/10/08 12:35:25;;;;;;;11.27;3.70;;;;;;;22.92;37.25;95298.94;5020535;28;20298;-76
2023/10/08 12:37:51;;;;;;;17.00;4.20;;;;;;;22.93;37.48;95292.53;5016856;28;20291;-76
2023/10/08 12:40:22;;;;;;;12.07;4.07;;;;;;;23.11;37.18;95288.53;5018603;28;20233;-76
2023/10/08 12:42:51;;;;;;;12.93;4.17;;;;;;;23.21;37.10;95294.66;5034121;28;20230;-69
2023/10/08 12:45:20;;;;;;;12.73;4.07;;;;;;;23.30;37.28;95282.38;5008177;28;20222;-69
2023/10/08 12:47:52;;;;;;;13.27;3.50;;;;;;;23.31;36.96;95275.13;4987290;28;20732;-72
2023/10/08 12:50:23;;;;;;;12.30;3.90;;;;;;;23.39;36.95;95293.31;5025237;28;20301;-70
2023/10/08 12:52:54;;;;;;;14.07;3.80;;;;;;;23.59;36.58;95285.28;5014053;28;20234;-71
2023/10/08 12:55:26;;;;;;;16.77;3.87;;;;;;;23.48;36.68;95285.56;5008626;28;20232;-71
2023/10/08 12:57:55;;;;;;;15.93;3.53;;;;;;;23.32;37.03;95282.06;5017646;28;20713;-69